This is the latest recevied weather packets stored in our database for station/object GW1599. If no packets are shown the sender has not sent any weather packets the latest 10 day(s).
| Time | Temp. | Humidity | Pressure | Rain* | Wind** | Luminosity | Snow |
|---|---|---|---|---|---|---|---|
| 1778112948 | 13.33° C | 94% | 1013.2 hPa | 11.68 mm | - | - | - |
| 1778111494 | 13.33° C | 94% | 1013.5 hPa | 11.68 mm | - | - | - |
| 1778106442 | 13.89° C | 92% | 1013.2 hPa | 11.68 mm | - | - | - |
| 1778105716 | 13.89° C | 92% | 1012.8 hPa | 11.68 mm | - | - | - |
| 1778105358 | 13.89° C | 92% | 1012.8 hPa | 11.68 mm | - | - | - |
| 1778105023 | 13.89° C | 92% | 1012.8 hPa | 11.68 mm | - | - | - |
| 1778104659 | 13.89° C | 92% | 1013.2 hPa | 11.68 mm | - | - | - |
| 1778102833 | 13.89° C | 92% | 1012.8 hPa | 11.68 mm | - | - | - |
| 1778100331 | 13.89° C | 91% | 1012.8 hPa | 11.68 mm | - | - | - |
| 1778099591 | 14.44° C | 91% | 1012.8 hPa | 11.68 mm | - | - | - |
| 1778096394 | 13.33° C | 93% | 1012.5 hPa | 11.68 mm | - | - | - |
| 1778094943 | 13.33° C | 93% | 1012.5 hPa | 11.68 mm | - | - | - |
| 1778094221 | 13.33° C | 93% | 1012.5 hPa | 11.68 mm | - | - | - |
| 1778092760 | 13.33° C | 92% | 1012.1 hPa | 11.68 mm | - | - | - |
| 1778089887 | 13.89° C | 93% | 1011.8 hPa | 11.68 mm | - | - | - |
| 1778085586 | 14.44° C | 94% | 1011.5 hPa | 11.68 mm | - | - | - |
| 1778084869 | 14.44° C | 94% | 1011.5 hPa | 11.68 mm | - | - | - |
| 1778084146 | 15° C | 94% | 1011.5 hPa | 11.68 mm | - | - | - |
| 1778080174 | 16.67° C | 97% | 1009.8 hPa | 11.68 mm | - | - | - |
| 1778079791 | 16.67° C | 97% | 1010.1 hPa | 11.68 mm | - | - | - |
| 1778077277 | 16.11° C | 97% | 1009.8 hPa | 11.43 mm | - | - | - |
| 1778076575 | 16.11° C | 97% | 1009.8 hPa | 11.43 mm | - | - | - |
| 1778074430 | 15.56° C | 97% | 1009.1 hPa | 11.18 mm | - | - | - |
| 1778071906 | 15° C | 97% | 1008.8 hPa | 11.18 mm | - | - | - |
| 1778070800 | 15° C | 97% | 1008.4 hPa | 11.18 mm | - | - | - |
* Rain since midnight (hover to see other rain measurements)
** Current wind speed in m/s (hover to see current wind gust speed)